Ws Pegasus — PR4174 — position and weather

sailwx.info

Track history (hours):
 
Tides and Currents Weather Stations Pressure Air Temp Water Temp Dewpoint Dewpoint Depression Visibility Wind Speed Wind Dir Waves Ship Positions

Ws Pegasus

Last reported at 2017-Dec-15 10:35 UTC. Time now 2017-Dec-15 19:57 UTC.
Position S 23°55' W 046°20'.

Length 20 m; draft 5.6 m.

MMSI: 710018340.

Date/timePositionNaut miles runAvg speedWind from/ knotsBaromVisibWave heightAir tempDewpointWater temp
2017-Dec-15 10:35S 23°55' W 046°20'1 7.0
2017-Dec-15 10:29S 23°55' W 046°21'5 0.3
2017-Dec-14 18:19S 23°59' W 046°17'1 3.0
2017-Dec-14 17:59S 23°60' W 046°18'3 1.4
2017-Dec-14 15:31S 23°56' W 046°19'1 0.7
2017-Dec-14 13:31S 23°55' W 046°20'3 5.9
2017-Dec-14 13:01S 23°58' W 046°18'0 9.2
2017-Dec-14 13:00S 23°58' W 046°18'0 0.3
2017-Dec-14 12:27S 23°58' W 046°18'0 0.0
2017-Dec-14 11:58S 23°58' W 046°18'0 0.0
2017-Dec-14 11:30S 23°58' W 046°18'0 0.0
2017-Dec-14 10:59S 23°58' W 046°18'0 0.0
2017-Dec-14 10:29S 23°58' W 046°18'0 0.0
2017-Dec-14 10:00S 23°58' W 046°18'0 0.0
2017-Dec-14 08:43S 23°58' W 046°18'0 2.0
2017-Dec-14 08:31S 23°58' W 046°18'0 0.3
2017-Dec-14 07:59S 23°58' W 046°18'2 3.9
2017-Dec-14 07:30S 23°60' W 046°19'1 1.8
2017-Dec-14 07:00S 23°59' W 046°18'0 0.0
2017-Dec-13 22:01S 23°59' W 046°18'0 1.0
2017-Dec-13 22:00S 23°59' W 046°18'0 0.0
2017-Dec-13 21:30S 23°59' W 046°18'5 4.5
2017-Dec-13 20:18S 23°55' W 046°21'5 1.1
2017-Dec-13 15:34S 23°59' W 046°18'0 0.7
2017-Dec-13 15:30S 23°59' W 046°18'3 4.7
2017-Dec-13 14:58S 23°57' W 046°19'1 0.2
2017-Dec-13 06:27S 23°58' W 046°18'3 6.1
2017-Dec-13 06:00S 23°60' W 046°20'2 0.4
2017-Dec-12 23:52S 23°59' W 046°18'0 0.5
2017-Dec-12 23:25S 23°59' W 046°17'1 0.3
2017-Dec-12 19:00S 23°58' W 046°18'0 0.7
2017-Dec-12 18:31S 23°58' W 046°17'1 2.0
2017-Dec-12 18:01S 23°59' W 046°18'0 0.1
2017-Dec-12 13:51S 23°59' W 046°18'0 0.1
2017-Dec-12 13:28S 23°59' W 046°18'0 0.0
2017-Dec-12 13:01S 23°59' W 046°18'0 0.0
2017-Dec-12 12:31S 23°59' W 046°18'0 0.8
2017-Dec-12 12:01S 23°60' W 046°18'2 4.4
2017-Dec-12 11:30S 23°57' W 046°18'1 0.2
2017-Dec-12 06:07S 23°56' W 046°19'2 0.1
2017-Dec-11 11:06S 23°55' W 046°20'1 0.0
2017-Dec-10 18:12S 23°55' W 046°21'4 1.4
2017-Dec-10 15:37S 23°58' W 046°18'1 9.9
2017-Dec-10 15:30S 23°59' W 046°17'1 1.7
2017-Dec-10 15:01S 23°59' W 046°18'1 2.9
2017-Dec-10 14:31S 23°58' W 046°18'0 0.0
2017-Dec-10 14:00S 23°58' W 046°18'0 0.0
2017-Dec-10 13:31S 23°58' W 046°18'0 0.0
2017-Dec-10 13:00S 23°58' W 046°18'0 0.0
2017-Dec-10 12:31S 23°58' W 046°18'0 0.0
2017-Dec-10 12:00S 23°58' W 046°18'0 0.0
2017-Dec-10 11:30S 23°58' W 046°18'0 0.0
2017-Dec-10 11:01S 23°58' W 046°18'0 0.6
2017-Dec-10 10:31S 23°58' W 046°18'2 3.0
2017-Dec-10 10:01S 23°59' W 046°18'0 0.0
2017-Dec-10 04:57S 23°59' W 046°18'2 3.4
2017-Dec-10 04:30S 23°58' W 046°18'2 0.7
2017-Dec-10 02:27S 23°59' W 046°18'0 0.0
2017-Dec-10 02:00S 23°59' W 046°18'0 0.0
2017-Dec-10 01:30S 23°59' W 046°18'0 0.0
2017-Dec-10 01:00S 23°59' W 046°18'2 2.9
2017-Dec-10 00:28S 23°58' W 046°18'1 0.0
2017-Dec-09 09:25S 23°58' W 046°17'0 0.4
2017-Dec-09 08:59S 23°58' W 046°17'1 0.0
2017-Dec-08 14:34S 23°58' W 046°18'1 8.6
2017-Dec-08 14:29S 23°58' W 046°17'1 2.5
2017-Dec-08 14:00S 23°59' W 046°18'1 1.9
2017-Dec-08 13:30S 23°60' W 046°19'1 1.8
2017-Dec-08 12:58S 23°59' W 046°18'0 0.0
2017-Dec-08 12:21S 23°59' W 046°18'0 0.0
2017-Dec-08 11:55S 23°59' W 046°18'0 0.0
2017-Dec-08 11:22S 23°59' W 046°18'0 0.0
2017-Dec-08 10:59S 23°59' W 046°18'0 0.0
2017-Dec-08 10:25S 23°59' W 046°18'0 0.0
2017-Dec-08 09:53S 23°59' W 046°18'2 4.8
2017-Dec-08 09:30S 23°58' W 046°18'1 1.7
2017-Dec-08 08:59S 23°59' W 046°17'1 1.0
2017-Dec-08 08:02S 23°59' W 046°18'0 0.0
2017-Dec-08 03:39S 23°59' W 046°18'0 0.0
2017-Dec-08 03:26S 23°59' W 046°18'0 0.0
2017-Dec-08 03:00S 23°59' W 046°18'0 0.0
2017-Dec-08 02:30S 23°59' W 046°18'0 0.0
2017-Dec-08 02:00S 23°59' W 046°18'0 0.0
2017-Dec-08 01:29S 23°59' W 046°18'0 0.0
2017-Dec-08 01:00S 23°59' W 046°18'0 0.0
2017-Dec-08 00:30S 23°59' W 046°18'0 0.0
2017-Dec-08 00:00S 23°59' W 046°18'1 1.6
2017-Dec-07 23:29S 23°59' W 046°17'1 2.5
2017-Dec-07 23:00S 23°58' W 046°18'0 0.3
2017-Dec-07 22:30S 23°58' W 046°18'2 3.6
2017-Dec-07 22:00S 23°59' W 046°18'0 0.0
2017-Dec-07 21:30S 23°59' W 046°18'0 0.0
2017-Dec-07 21:00S 23°59' W 046°18'0 0.0
2017-Dec-07 20:30S 23°59' W 046°18'1 1.9
2017-Dec-07 19:55S 23°58' W 046°17'0 0.1
2017-Dec-07 19:28S 23°58' W 046°17'1 0.1
2017-Dec-07 09:45S 23°58' W 046°18'2 6.6
2017-Dec-07 09:27S 23°60' W 046°18'0 0.8
2017-Dec-07 08:54S 23°59' W 046°18'0 0.0
2017-Dec-07 08:30S 23°59' W 046°18'2 0.2
2017-Dec-07 01:33S 23°58' W 046°18'1 6.7
2017-Dec-07 01:21S 23°59' W 046°18'2 5.2
2017-Dec-07 01:00S 23°60' W 046°19'2 3.4
2017-Dec-07 00:30S 23°59' W 046°18'0 0.0
2017-Dec-07 00:00S 23°59' W 046°18'0 0.0
2017-Dec-06 23:30S 23°59' W 046°18'0 0.0
2017-Dec-06 22:59S 23°59' W 046°18'0 0.0
2017-Dec-06 22:30S 23°59' W 046°18'0 0.0
2017-Dec-06 22:00S 23°59' W 046°18'0 0.0
2017-Dec-06 21:30S 23°59' W 046°18'0 0.0
2017-Dec-06 21:00S 23°59' W 046°18'  
Track history (hours):
 
Tides and Currents Weather Stations Pressure Air Temp Water Temp Dewpoint Dewpoint Depression Visibility Wind Speed Wind Dir Waves Ship Positions

Ws Pegasus

Last reported at 2017-Dec-15 10:35 UTC. Time now 2017-Dec-15 19:57 UTC.
Position S 23°55' W 046°20'.

Length 20 m; draft 5.6 m.

MMSI: 710018340.

Date/timePositionNaut miles runAvg speedWind from/ knotsBaromVisibWave heightAir tempDewpointWater temp
2017-Dec-15 10:35S 23°55' W 046°20'1 7.0
2017-Dec-15 10:29S 23°55' W 046°21'5 0.3
2017-Dec-14 18:19S 23°59' W 046°17'1 3.0
2017-Dec-14 17:59S 23°60' W 046°18'3 1.4
2017-Dec-14 15:31S 23°56' W 046°19'1 0.7
2017-Dec-14 13:31S 23°55' W 046°20'3 5.9
2017-Dec-14 13:01S 23°58' W 046°18'0 9.2
2017-Dec-14 13:00S 23°58' W 046°18'0 0.3
2017-Dec-14 12:27S 23°58' W 046°18'0 0.0
2017-Dec-14 11:58S 23°58' W 046°18'0 0.0
2017-Dec-14 11:30S 23°58' W 046°18'0 0.0
2017-Dec-14 10:59S 23°58' W 046°18'0 0.0
2017-Dec-14 10:29S 23°58' W 046°18'0 0.0
2017-Dec-14 10:00S 23°58' W 046°18'0 0.0
2017-Dec-14 08:43S 23°58' W 046°18'0 2.0
2017-Dec-14 08:31S 23°58' W 046°18'0 0.3
2017-Dec-14 07:59S 23°58' W 046°18'2 3.9
2017-Dec-14 07:30S 23°60' W 046°19'1 1.8
2017-Dec-14 07:00S 23°59' W 046°18'0 0.0
2017-Dec-13 22:01S 23°59' W 046°18'0 1.0
2017-Dec-13 22:00S 23°59' W 046°18'0 0.0
2017-Dec-13 21:30S 23°59' W 046°18'5 4.5
2017-Dec-13 20:18S 23°55' W 046°21'5 1.1
2017-Dec-13 15:34S 23°59' W 046°18'0 0.7
2017-Dec-13 15:30S 23°59' W 046°18'3 4.7
2017-Dec-13 14:58S 23°57' W 046°19'1 0.2
2017-Dec-13 06:27S 23°58' W 046°18'3 6.1
2017-Dec-13 06:00S 23°60' W 046°20'2 0.4
2017-Dec-12 23:52S 23°59' W 046°18'0 0.5
2017-Dec-12 23:25S 23°59' W 046°17'1 0.3
2017-Dec-12 19:00S 23°58' W 046°18'0 0.7
2017-Dec-12 18:31S 23°58' W 046°17'1 2.0
2017-Dec-12 18:01S 23°59' W 046°18'0 0.1
2017-Dec-12 13:51S 23°59' W 046°18'0 0.1
2017-Dec-12 13:28S 23°59' W 046°18'0 0.0
2017-Dec-12 13:01S 23°59' W 046°18'0 0.0
2017-Dec-12 12:31S 23°59' W 046°18'0 0.8
2017-Dec-12 12:01S 23°60' W 046°18'2 4.4
2017-Dec-12 11:30S 23°57' W 046°18'1 0.2
2017-Dec-12 06:07S 23°56' W 046°19'2 0.1
2017-Dec-11 11:06S 23°55' W 046°20'1 0.0
2017-Dec-10 18:12S 23°55' W 046°21'4 1.4
2017-Dec-10 15:37S 23°58' W 046°18'1 9.9
2017-Dec-10 15:30S 23°59' W 046°17'1 1.7
2017-Dec-10 15:01S 23°59' W 046°18'1 2.9
2017-Dec-10 14:31S 23°58' W 046°18'0 0.0
2017-Dec-10 14:00S 23°58' W 046°18'0 0.0
2017-Dec-10 13:31S 23°58' W 046°18'0 0.0
2017-Dec-10 13:00S 23°58' W 046°18'0 0.0
2017-Dec-10 12:31S 23°58' W 046°18'0 0.0
2017-Dec-10 12:00S 23°58' W 046°18'0 0.0
2017-Dec-10 11:30S 23°58' W 046°18'0 0.0
2017-Dec-10 11:01S 23°58' W 046°18'0 0.6
2017-Dec-10 10:31S 23°58' W 046°18'2 3.0
2017-Dec-10 10:01S 23°59' W 046°18'0 0.0
2017-Dec-10 04:57S 23°59' W 046°18'2 3.4
2017-Dec-10 04:30S 23°58' W 046°18'2 0.7
2017-Dec-10 02:27S 23°59' W 046°18'0 0.0
2017-Dec-10 02:00S 23°59' W 046°18'0 0.0
2017-Dec-10 01:30S 23°59' W 046°18'0 0.0
2017-Dec-10 01:00S 23°59' W 046°18'2 2.9
2017-Dec-10 00:28S 23°58' W 046°18'1 0.0
2017-Dec-09 09:25S 23°58' W 046°17'0 0.4
2017-Dec-09 08:59S 23°58' W 046°17'1 0.0
2017-Dec-08 14:34S 23°58' W 046°18'1 8.6
2017-Dec-08 14:29S 23°58' W 046°17'1 2.5
2017-Dec-08 14:00S 23°59' W 046°18'1 1.9
2017-Dec-08 13:30S 23°60' W 046°19'1 1.8
2017-Dec-08 12:58S 23°59' W 046°18'0 0.0
2017-Dec-08 12:21S 23°59' W 046°18'0 0.0
2017-Dec-08 11:55S 23°59' W 046°18'0 0.0
2017-Dec-08 11:22S 23°59' W 046°18'0 0.0
2017-Dec-08 10:59S 23°59' W 046°18'0 0.0
2017-Dec-08 10:25S 23°59' W 046°18'0 0.0
2017-Dec-08 09:53S 23°59' W 046°18'2 4.8
2017-Dec-08 09:30S 23°58' W 046°18'1 1.7
2017-Dec-08 08:59S 23°59' W 046°17'1 1.0
2017-Dec-08 08:02S 23°59' W 046°18'0 0.0
2017-Dec-08 03:39S 23°59' W 046°18'0 0.0
2017-Dec-08 03:26S 23°59' W 046°18'0 0.0
2017-Dec-08 03:00S 23°59' W 046°18'0 0.0
2017-Dec-08 02:30S 23°59' W 046°18'0 0.0
2017-Dec-08 02:00S 23°59' W 046°18'0 0.0
2017-Dec-08 01:29S 23°59' W 046°18'0 0.0
2017-Dec-08 01:00S 23°59' W 046°18'0 0.0
2017-Dec-08 00:30S 23°59' W 046°18'0 0.0
2017-Dec-08 00:00S 23°59' W 046°18'1 1.6
2017-Dec-07 23:29S 23°59' W 046°17'1 2.5
2017-Dec-07 23:00S 23°58' W 046°18'0 0.3
2017-Dec-07 22:30S 23°58' W 046°18'2 3.6
2017-Dec-07 22:00S 23°59' W 046°18'0 0.0
2017-Dec-07 21:30S 23°59' W 046°18'0 0.0
2017-Dec-07 21:00S 23°59' W 046°18'0 0.0
2017-Dec-07 20:30S 23°59' W 046°18'1 1.9
2017-Dec-07 19:55S 23°58' W 046°17'0 0.1
2017-Dec-07 19:28S 23°58' W 046°17'1 0.1
2017-Dec-07 09:45S 23°58' W 046°18'2 6.6
2017-Dec-07 09:27S 23°60' W 046°18'0 0.8
2017-Dec-07 08:54S 23°59' W 046°18'0 0.0
2017-Dec-07 08:30S 23°59' W 046°18'2 0.2
2017-Dec-07 01:33S 23°58' W 046°18'1 6.7
2017-Dec-07 01:21S 23°59' W 046°18'2 5.2
2017-Dec-07 01:00S 23°60' W 046°19'2 3.4
2017-Dec-07 00:30S 23°59' W 046°18'0 0.0
2017-Dec-07 00:00S 23°59' W 046°18'0 0.0
2017-Dec-06 23:30S 23°59' W 046°18'0 0.0
2017-Dec-06 22:59S 23°59' W 046°18'0 0.0
2017-Dec-06 22:30S 23°59' W 046°18'0 0.0
2017-Dec-06 22:00S 23°59' W 046°18'0 0.0
2017-Dec-06 21:30S 23°59' W 046°18'0 0.0
2017-Dec-06 21:00S 23°59' W 046°18'  

Dump ship's entire track history